sensor_id;sensor_type;location;lat;lon;timestamp;temperature;humidity
32522;DHT22;18963;51.504;5.316;2022-12-07T00:01:07;3.20;99.90
32522;DHT22;18963;51.504;5.316;2022-12-07T00:03:33;3.10;99.90
32522;DHT22;18963;51.504;5.316;2022-12-07T00:05:59;3.00;99.90
32522;DHT22;18963;51.504;5.316;2022-12-07T00:08:25;2.90;99.90
32522;DHT22;18963;51.504;5.316;2022-12-07T00:10:50;2.80;99.90
32522;DHT22;18963;51.504;5.316;2022-12-07T00:13:16;2.70;99.90
32522;DHT22;18963;51.504;5.316;2022-12-07T00:15:41;2.70;99.90
32522;DHT22;18963;51.504;5.316;2022-12-07T00:18:07;2.60;99.90
32522;DHT22;18963;51.504;5.316;2022-12-07T00:20:32;2.50;99.90
32522;DHT22;18963;51.504;5.316;2022-12-07T00:22:58;2.50;99.90
32522;DHT22;18963;51.504;5.316;2022-12-07T00:25:23;2.40;99.90
32522;DHT22;18963;51.504;5.316;2022-12-07T00:27:49;2.30;99.90
32522;DHT22;18963;51.504;5.316;2022-12-07T00:30:14;2.20;99.90
32522;DHT22;18963;51.504;5.316;2022-12-07T00:32:40;2.20;99.90
32522;DHT22;18963;51.504;5.316;2022-12-07T00:35:05;2.10;99.90
32522;DHT22;18963;51.504;5.316;2022-12-07T00:37:31;2.10;99.90
32522;DHT22;18963;51.504;5.316;2022-12-07T00:39:56;2.10;99.90
32522;DHT22;18963;51.504;5.316;2022-12-07T00:42:22;2.10;99.90
32522;DHT22;18963;51.504;5.316;2022-12-07T00:44:47;2.10;99.90
32522;DHT22;18963;51.504;5.316;2022-12-07T00:47:13;2.10;99.90
32522;DHT22;18963;51.504;5.316;2022-12-07T00:49:38;2.10;99.90
32522;DHT22;18963;51.504;5.316;2022-12-07T00:52:04;2.20;99.90
32522;DHT22;18963;51.504;5.316;2022-12-07T00:54:29;2.20;99.90
32522;DHT22;18963;51.504;5.316;2022-12-07T00:56:55;2.20;99.90
32522;DHT22;18963;51.504;5.316;2022-12-07T00:59:20;2.20;99.90
32522;DHT22;18963;51.504;5.316;2022-12-07T01:01:46;2.30;99.90
32522;DHT22;18963;51.504;5.316;2022-12-07T01:04:11;2.20;99.90
32522;DHT22;18963;51.504;5.316;2022-12-07T01:06:37;2.30;99.90
32522;DHT22;18963;51.504;5.316;2022-12-07T01:09:03;2.30;99.90
32522;DHT22;18963;51.504;5.316;2022-12-07T01:11:30;2.30;99.90
32522;DHT22;18963;51.504;5.316;2022-12-07T01:13:56;2.20;99.90
32522;DHT22;18963;51.504;5.316;2022-12-07T01:16:23;2.20;99.90
32522;DHT22;18963;51.504;5.316;2022-12-07T01:18:50;2.20;99.90
32522;DHT22;18963;51.504;5.316;2022-12-07T01:21:17;2.30;99.90
32522;DHT22;18963;51.504;5.316;2022-12-07T01:23:43;2.30;99.90
32522;DHT22;18963;51.504;5.316;2022-12-07T01:26:12;2.40;99.90
32522;DHT22;18963;51.504;5.316;2022-12-07T01:28:38;2.50;99.90
32522;DHT22;18963;51.504;5.316;2022-12-07T01:31:05;2.60;99.90
32522;DHT22;18963;51.504;5.316;2022-12-07T01:33:32;2.70;99.90
32522;DHT22;18963;51.504;5.316;2022-12-07T01:36:02;2.80;99.90
32522;DHT22;18963;51.504;5.316;2022-12-07T01:38:28;2.90;99.90
32522;DHT22;18963;51.504;5.316;2022-12-07T01:40:54;2.90;99.90
32522;DHT22;18963;51.504;5.316;2022-12-07T01:43:20;3.00;99.90
32522;DHT22;18963;51.504;5.316;2022-12-07T01:45:46;3.00;99.90
32522;DHT22;18963;51.504;5.316;2022-12-07T01:48:12;3.10;99.90
32522;DHT22;18963;51.504;5.316;2022-12-07T01:50:40;3.10;99.90
32522;DHT22;18963;51.504;5.316;2022-12-07T01:53:07;3.10;99.90
32522;DHT22;18963;51.504;5.316;2022-12-07T01:55:34;3.10;99.90
32522;DHT22;18963;51.504;5.316;2022-12-07T01:58:02;3.20;99.90
32522;DHT22;18963;51.504;5.316;2022-12-07T02:00:27;3.20;99.90
32522;DHT22;18963;51.504;5.316;2022-12-07T02:03:09;3.20;99.90
32522;DHT22;18963;51.504;5.316;2022-12-07T02:05:37;3.20;99.90
32522;DHT22;18963;51.504;5.316;2022-12-07T02:08:03;3.20;99.90
32522;DHT22;18963;51.504;5.316;2022-12-07T02:10:30;3.10;99.90
32522;DHT22;18963;51.504;5.316;2022-12-07T02:12:57;3.10;99.90
32522;DHT22;18963;51.504;5.316;2022-12-07T02:15:25;3.10;99.90
32522;DHT22;18963;51.504;5.316;2022-12-07T02:17:59;3.10;99.90
32522;DHT22;18963;51.504;5.316;2022-12-07T02:20:50;3.10;99.90
32522;DHT22;18963;51.504;5.316;2022-12-07T02:23:23;3.10;99.90
32522;DHT22;18963;51.504;5.316;2022-12-07T02:30:51;3.00;99.90
32522;DHT22;18963;51.504;5.316;2022-12-07T02:33:24;2.90;99.90
32522;DHT22;18963;51.504;5.316;2022-12-07T02:38:21;2.80;99.90
32522;DHT22;18963;51.504;5.316;2022-12-07T02:45:47;2.50;99.90
32522;DHT22;18963;51.504;5.316;2022-12-07T02:48:13;2.40;99.90
32522;DHT22;18963;51.504;5.316;2022-12-07T02:50:44;2.30;99.90
32522;DHT22;18963;51.504;5.316;2022-12-07T02:53:31;2.30;99.90
32522;DHT22;18963;51.504;5.316;2022-12-07T02:55:55;2.20;99.90
32522;DHT22;18963;51.504;5.316;2022-12-07T03:01:26;2.30;99.90
32522;DHT22;18963;51.504;5.316;2022-12-07T03:03:58;2.30;99.90
32522;DHT22;18963;51.504;5.316;2022-12-07T03:06:28;2.40;99.90
32522;DHT22;18963;51.504;5.316;2022-12-07T03:09:19;2.40;99.90
32522;DHT22;18963;51.504;5.316;2022-12-07T03:11:50;2.40;99.90
32522;DHT22;18963;51.504;5.316;2022-12-07T03:14:21;2.40;99.90
32522;DHT22;18963;51.504;5.316;2022-12-07T03:16:53;2.50;99.90
32522;DHT22;18963;51.504;5.316;2022-12-07T03:19:21;2.50;99.90
32522;DHT22;18963;51.504;5.316;2022-12-07T03:21:53;2.40;99.90
32522;DHT22;18963;51.504;5.316;2022-12-07T03:24:21;2.40;99.90
32522;DHT22;18963;51.504;5.316;2022-12-07T03:26:58;2.40;99.90
32522;DHT22;18963;51.504;5.316;2022-12-07T03:29:28;2.30;99.90
32522;DHT22;18963;51.504;5.316;2022-12-07T03:31:56;2.30;99.90
32522;DHT22;18963;51.504;5.316;2022-12-07T03:34:25;2.30;99.90
32522;DHT22;18963;51.504;5.316;2022-12-07T03:36:54;2.20;99.90
32522;DHT22;18963;51.504;5.316;2022-12-07T03:41:45;2.10;99.90
32522;DHT22;18963;51.504;5.316;2022-12-07T03:44:11;2.10;99.90
32522;DHT22;18963;51.504;5.316;2022-12-07T03:51:45;2.30;99.90
32522;DHT22;18963;51.504;5.316;2022-12-07T03:54:17;2.40;99.90
32522;DHT22;18963;51.504;5.316;2022-12-07T03:56:44;2.50;99.90
32522;DHT22;18963;51.504;5.316;2022-12-07T03:59:11;2.60;99.90
32522;DHT22;18963;51.504;5.316;2022-12-07T04:01:37;2.60;99.90
32522;DHT22;18963;51.504;5.316;2022-12-07T04:04:03;2.60;99.90
32522;DHT22;18963;51.504;5.316;2022-12-07T04:06:28;2.70;99.90
32522;DHT22;18963;51.504;5.316;2022-12-07T04:08:54;2.70;99.90
32522;DHT22;18963;51.504;5.316;2022-12-07T04:11:19;2.70;99.90
32522;DHT22;18963;51.504;5.316;2022-12-07T04:13:45;2.70;99.90
32522;DHT22;18963;51.504;5.316;2022-12-07T04:16:29;2.70;99.90
32522;DHT22;18963;51.504;5.316;2022-12-07T04:18:54;2.80;99.90
32522;DHT22;18963;51.504;5.316;2022-12-07T04:21:20;2.80;99.90
32522;DHT22;18963;51.504;5.316;2022-12-07T04:23:45;2.90;99.90
32522;DHT22;18963;51.504;5.316;2022-12-07T04:26:11;2.90;99.90
32522;DHT22;18963;51.504;5.316;2022-12-07T04:28:36;3.00;99.90
32522;DHT22;18963;51.504;5.316;2022-12-07T04:31:01;3.00;99.90
32522;DHT22;18963;51.504;5.316;2022-12-07T04:33:27;3.10;99.90
32522;DHT22;18963;51.504;5.316;2022-12-07T04:35:52;3.20;99.90
32522;DHT22;18963;51.504;5.316;2022-12-07T04:38:18;3.20;99.90
32522;DHT22;18963;51.504;5.316;2022-12-07T04:40:43;3.30;99.90
32522;DHT22;18963;51.504;5.316;2022-12-07T04:43:09;3.30;99.90
32522;DHT22;18963;51.504;5.316;2022-12-07T04:45:34;3.40;99.90
32522;DHT22;18963;51.504;5.316;2022-12-07T04:48:00;3.40;99.90
32522;DHT22;18963;51.504;5.316;2022-12-07T04:50:25;3.50;99.90
32522;DHT22;18963;51.504;5.316;2022-12-07T04:52:51;3.50;99.90
32522;DHT22;18963;51.504;5.316;2022-12-07T04:55:16;3.60;99.90
32522;DHT22;18963;51.504;5.316;2022-12-07T04:57:42;3.60;99.90
32522;DHT22;18963;51.504;5.316;2022-12-07T05:00:07;3.60;99.90
32522;DHT22;18963;51.504;5.316;2022-12-07T05:02:33;3.60;99.90
32522;DHT22;18963;51.504;5.316;2022-12-07T05:04:59;3.60;99.90
32522;DHT22;18963;51.504;5.316;2022-12-07T05:07:24;3.70;99.90
32522;DHT22;18963;51.504;5.316;2022-12-07T05:09:50;3.70;99.90
32522;DHT22;18963;51.504;5.316;2022-12-07T05:12:15;3.70;99.90
32522;DHT22;18963;51.504;5.316;2022-12-07T05:14:40;3.70;99.90
32522;DHT22;18963;51.504;5.316;2022-12-07T05:17:06;3.70;99.90
32522;DHT22;18963;51.504;5.316;2022-12-07T05:19:31;3.70;99.90
32522;DHT22;18963;51.504;5.316;2022-12-07T05:21:57;3.70;99.90
32522;DHT22;18963;51.504;5.316;2022-12-07T05:24:22;3.70;99.90
32522;DHT22;18963;51.504;5.316;2022-12-07T05:26:48;3.70;99.90
32522;DHT22;18963;51.504;5.316;2022-12-07T05:29:14;3.60;99.90
32522;DHT22;18963;51.504;5.316;2022-12-07T05:31:40;3.60;99.90
32522;DHT22;18963;51.504;5.316;2022-12-07T05:34:06;3.60;99.90
32522;DHT22;18963;51.504;5.316;2022-12-07T05:36:32;3.60;99.90
32522;DHT22;18963;51.504;5.316;2022-12-07T05:38:57;3.60;99.90
32522;DHT22;18963;51.504;5.316;2022-12-07T05:41:23;3.50;99.90
32522;DHT22;18963;51.504;5.316;2022-12-07T05:44:07;3.40;99.90
32522;DHT22;18963;51.504;5.316;2022-12-07T05:46:33;3.40;99.90
32522;DHT22;18963;51.504;5.316;2022-12-07T05:48:59;3.30;99.90
32522;DHT22;18963;51.504;5.316;2022-12-07T05:51:24;3.20;99.90
32522;DHT22;18963;51.504;5.316;2022-12-07T05:53:50;3.10;99.90
32522;DHT22;18963;51.504;5.316;2022-12-07T05:56:15;3.00;99.90
32522;DHT22;18963;51.504;5.316;2022-12-07T05:58:41;2.90;99.90
32522;DHT22;18963;51.504;5.316;2022-12-07T06:01:25;2.80;99.90
32522;DHT22;18963;51.504;5.316;2022-12-07T06:03:50;2.70;99.90
32522;DHT22;18963;51.504;5.316;2022-12-07T06:06:16;2.60;99.90
32522;DHT22;18963;51.504;5.316;2022-12-07T06:08:41;2.50;99.90
32522;DHT22;18963;51.504;5.316;2022-12-07T06:11:07;2.40;99.90
32522;DHT22;18963;51.504;5.316;2022-12-07T06:13:51;2.30;99.90
32522;DHT22;18963;51.504;5.316;2022-12-07T06:16:17;2.20;99.90
32522;DHT22;18963;51.504;5.316;2022-12-07T06:18:42;2.20;99.90
32522;DHT22;18963;51.504;5.316;2022-12-07T06:21:07;2.10;99.90
32522;DHT22;18963;51.504;5.316;2022-12-07T06:23:33;2.00;99.90
32522;DHT22;18963;51.504;5.316;2022-12-07T06:25:58;1.90;99.90
32522;DHT22;18963;51.504;5.316;2022-12-07T06:28:24;1.90;99.90
32522;DHT22;18963;51.504;5.316;2022-12-07T06:30:59;1.80;99.90
32522;DHT22;18963;51.504;5.316;2022-12-07T06:33:25;1.70;99.90
32522;DHT22;18963;51.504;5.316;2022-12-07T06:35:50;1.70;99.90
32522;DHT22;18963;51.504;5.316;2022-12-07T06:38:16;1.60;99.90
32522;DHT22;18963;51.504;5.316;2022-12-07T06:40:42;1.60;99.90
32522;DHT22;18963;51.504;5.316;2022-12-07T06:43:07;1.60;99.90
32522;DHT22;18963;51.504;5.316;2022-12-07T06:45:33;1.70;99.90
32522;DHT22;18963;51.504;5.316;2022-12-07T06:47:58;1.70;99.90
32522;DHT22;18963;51.504;5.316;2022-12-07T06:50:24;1.80;99.90
32522;DHT22;18963;51.504;5.316;2022-12-07T06:52:50;1.80;99.90
32522;DHT22;18963;51.504;5.316;2022-12-07T06:55:16;1.80;99.90
32522;DHT22;18963;51.504;5.316;2022-12-07T06:57:41;1.80;99.90
32522;DHT22;18963;51.504;5.316;2022-12-07T07:00:07;1.80;99.90
32522;DHT22;18963;51.504;5.316;2022-12-07T07:02:32;1.80;99.90
32522;DHT22;18963;51.504;5.316;2022-12-07T07:04:58;1.80;99.90
32522;DHT22;18963;51.504;5.316;2022-12-07T07:07:23;1.70;99.90
32522;DHT22;18963;51.504;5.316;2022-12-07T07:09:49;1.70;99.90
32522;DHT22;18963;51.504;5.316;2022-12-07T07:12:14;1.70;99.90
32522;DHT22;18963;51.504;5.316;2022-12-07T07:14:40;1.60;99.90
32522;DHT22;18963;51.504;5.316;2022-12-07T07:17:05;1.60;99.90
32522;DHT22;18963;51.504;5.316;2022-12-07T07:19:31;1.50;99.90
32522;DHT22;18963;51.504;5.316;2022-12-07T07:21:56;1.50;99.90
32522;DHT22;18963;51.504;5.316;2022-12-07T07:24:22;1.50;99.90
32522;DHT22;18963;51.504;5.316;2022-12-07T07:26:47;1.40;99.90
32522;DHT22;18963;51.504;5.316;2022-12-07T07:29:13;1.40;99.90
32522;DHT22;18963;51.504;5.316;2022-12-07T07:31:38;1.40;99.90
32522;DHT22;18963;51.504;5.316;2022-12-07T07:34:04;1.40;99.90
32522;DHT22;18963;51.504;5.316;2022-12-07T07:36:29;1.40;99.90
32522;DHT22;18963;51.504;5.316;2022-12-07T07:38:55;1.50;99.90
32522;DHT22;18963;51.504;5.316;2022-12-07T07:41:20;1.50;99.90
32522;DHT22;18963;51.504;5.316;2022-12-07T07:43:46;1.60;99.90
32522;DHT22;18963;51.504;5.316;2022-12-07T07:46:11;1.60;99.90
32522;DHT22;18963;51.504;5.316;2022-12-07T07:48:37;1.60;99.90
32522;DHT22;18963;51.504;5.316;2022-12-07T07:51:06;1.60;99.90
32522;DHT22;18963;51.504;5.316;2022-12-07T07:53:32;1.60;99.90
32522;DHT22;18963;51.504;5.316;2022-12-07T07:55:57;1.70;99.90
32522;DHT22;18963;51.504;5.316;2022-12-07T07:58:23;1.70;99.90
32522;DHT22;18963;51.504;5.316;2022-12-07T08:00:49;1.70;99.90
32522;DHT22;18963;51.504;5.316;2022-12-07T08:03:14;1.70;99.90
32522;DHT22;18963;51.504;5.316;2022-12-07T08:05:40;1.70;99.90
32522;DHT22;18963;51.504;5.316;2022-12-07T08:08:05;1.70;99.90
32522;DHT22;18963;51.504;5.316;2022-12-07T08:10:30;1.80;99.90
32522;DHT22;18963;51.504;5.316;2022-12-07T08:13:00;1.70;99.90
32522;DHT22;18963;51.504;5.316;2022-12-07T08:15:45;1.80;99.90
32522;DHT22;18963;51.504;5.316;2022-12-07T08:18:12;1.80;99.90
32522;DHT22;18963;51.504;5.316;2022-12-07T08:20:38;1.90;99.90
32522;DHT22;18963;51.504;5.316;2022-12-07T08:23:05;2.00;99.90
32522;DHT22;18963;51.504;5.316;2022-12-07T08:25:31;2.00;99.90
32522;DHT22;18963;51.504;5.316;2022-12-07T08:27:56;2.10;99.90
32522;DHT22;18963;51.504;5.316;2022-12-07T08:30:22;2.20;99.90
32522;DHT22;18963;51.504;5.316;2022-12-07T08:32:48;2.30;99.90
32522;DHT22;18963;51.504;5.316;2022-12-07T08:35:14;2.30;99.90
32522;DHT22;18963;51.504;5.316;2022-12-07T08:37:40;2.40;99.90
32522;DHT22;18963;51.504;5.316;2022-12-07T08:40:06;2.50;99.90
32522;DHT22;18963;51.504;5.316;2022-12-07T08:42:32;2.60;99.90
32522;DHT22;18963;51.504;5.316;2022-12-07T08:45:06;2.70;99.90
32522;DHT22;18963;51.504;5.316;2022-12-07T08:47:33;2.80;99.90
32522;DHT22;18963;51.504;5.316;2022-12-07T08:49:59;2.90;99.90
32522;DHT22;18963;51.504;5.316;2022-12-07T08:52:31;3.00;99.90
32522;DHT22;18963;51.504;5.316;2022-12-07T08:54:57;3.10;99.90
32522;DHT22;18963;51.504;5.316;2022-12-07T08:57:23;3.20;99.90
32522;DHT22;18963;51.504;5.316;2022-12-07T08:59:49;3.30;99.90
32522;DHT22;18963;51.504;5.316;2022-12-07T09:02:14;3.40;99.90
32522;DHT22;18963;51.504;5.316;2022-12-07T09:04:39;3.50;99.90
32522;DHT22;18963;51.504;5.316;2022-12-07T09:07:05;3.50;99.90
32522;DHT22;18963;51.504;5.316;2022-12-07T09:09:31;3.60;99.90
32522;DHT22;18963;51.504;5.316;2022-12-07T09:11:56;3.70;99.90
32522;DHT22;18963;51.504;5.316;2022-12-07T09:14:22;3.70;99.90
32522;DHT22;18963;51.504;5.316;2022-12-07T09:16:48;3.80;99.90
32522;DHT22;18963;51.504;5.316;2022-12-07T09:19:13;3.80;99.90
32522;DHT22;18963;51.504;5.316;2022-12-07T09:21:39;3.90;99.90
32522;DHT22;18963;51.504;5.316;2022-12-07T09:24:04;3.90;99.90
32522;DHT22;18963;51.504;5.316;2022-12-07T09:26:30;3.90;99.90
32522;DHT22;18963;51.504;5.316;2022-12-07T09:28:55;3.90;99.90
32522;DHT22;18963;51.504;5.316;2022-12-07T09:31:21;3.90;99.90
32522;DHT22;18963;51.504;5.316;2022-12-07T09:33:46;3.90;99.90
32522;DHT22;18963;51.504;5.316;2022-12-07T09:36:12;3.80;99.90
32522;DHT22;18963;51.504;5.316;2022-12-07T09:38:37;3.80;99.90
32522;DHT22;18963;51.504;5.316;2022-12-07T09:41:06;3.70;99.90
32522;DHT22;18963;51.504;5.316;2022-12-07T09:43:33;3.70;99.90
32522;DHT22;18963;51.504;5.316;2022-12-07T09:46:00;3.80;99.90
32522;DHT22;18963;51.504;5.316;2022-12-07T09:48:27;4.00;99.90
32522;DHT22;18963;51.504;5.316;2022-12-07T09:50:54;4.20;99.90
32522;DHT22;18963;51.504;5.316;2022-12-07T09:53:28;4.40;99.90
32522;DHT22;18963;51.504;5.316;2022-12-07T09:55:55;4.60;99.90
32522;DHT22;18963;51.504;5.316;2022-12-07T09:58:22;4.70;99.90
32522;DHT22;18963;51.504;5.316;2022-12-07T10:00:49;4.90;99.90
32522;DHT22;18963;51.504;5.316;2022-12-07T10:03:15;5.10;99.90
32522;DHT22;18963;51.504;5.316;2022-12-07T10:05:45;5.30;99.90
32522;DHT22;18963;51.504;5.316;2022-12-07T10:08:14;5.50;99.90
32522;DHT22;18963;51.504;5.316;2022-12-07T10:10:41;5.50;99.90
32522;DHT22;18963;51.504;5.316;2022-12-07T10:13:08;5.50;99.90
32522;DHT22;18963;51.504;5.316;2022-12-07T10:15:45;5.50;99.90
32522;DHT22;18963;51.504;5.316;2022-12-07T10:23:26;5.60;99.90
32522;DHT22;18963;51.504;5.316;2022-12-07T10:25:51;5.70;99.90
32522;DHT22;18963;51.504;5.316;2022-12-07T10:28:20;5.70;99.90
32522;DHT22;18963;51.504;5.316;2022-12-07T10:33:34;5.80;99.90
32522;DHT22;18963;51.504;5.316;2022-12-07T10:36:01;6.00;99.90
32522;DHT22;18963;51.504;5.316;2022-12-07T10:38:34;6.10;99.90
32522;DHT22;18963;51.504;5.316;2022-12-07T10:41:09;6.10;99.90
32522;DHT22;18963;51.504;5.316;2022-12-07T10:43:34;6.10;99.90
32522;DHT22;18963;51.504;5.316;2022-12-07T10:46:10;6.00;99.90
32522;DHT22;18963;51.504;5.316;2022-12-07T10:48:42;6.00;99.90
32522;DHT22;18963;51.504;5.316;2022-12-07T10:51:20;6.30;99.90
32522;DHT22;18963;51.504;5.316;2022-12-07T10:53:51;6.80;99.90
32522;DHT22;18963;51.504;5.316;2022-12-07T11:04:11;7.60;99.90
32522;DHT22;18963;51.504;5.316;2022-12-07T11:06:46;7.60;99.90
32522;DHT22;18963;51.504;5.316;2022-12-07T11:11:48;7.40;99.90
32522;DHT22;18963;51.504;5.316;2022-12-07T11:16:56;7.30;99.90
32522;DHT22;18963;51.504;5.316;2022-12-07T11:19:32;7.20;99.90
32522;DHT22;18963;51.504;5.316;2022-12-07T11:24:32;7.20;99.90
32522;DHT22;18963;51.504;5.316;2022-12-07T11:27:10;7.20;99.90
32522;DHT22;18963;51.504;5.316;2022-12-07T11:34:44;7.20;99.90
32522;DHT22;18963;51.504;5.316;2022-12-07T11:37:15;7.20;99.90
32522;DHT22;18963;51.504;5.316;2022-12-07T11:39:52;7.20;99.90
32522;DHT22;18963;51.504;5.316;2022-12-07T11:42:23;7.20;99.90
32522;DHT22;18963;51.504;5.316;2022-12-07T11:47:38;7.10;99.90
32522;DHT22;18963;51.504;5.316;2022-12-07T11:52:54;7.00;99.90
32522;DHT22;18963;51.504;5.316;2022-12-07T11:55:29;6.90;99.90
32522;DHT22;18963;51.504;5.316;2022-12-07T11:58:02;6.90;99.90
32522;DHT22;18963;51.504;5.316;2022-12-07T12:00:29;6.90;99.90
32522;DHT22;18963;51.504;5.316;2022-12-07T12:02:59;6.90;99.90
32522;DHT22;18963;51.504;5.316;2022-12-07T12:05:27;6.80;99.90
32522;DHT22;18963;51.504;5.316;2022-12-07T12:08:04;6.70;99.90
32522;DHT22;18963;51.504;5.316;2022-12-07T12:10:41;6.60;99.90
32522;DHT22;18963;51.504;5.316;2022-12-07T12:13:27;6.60;99.90
32522;DHT22;18963;51.504;5.316;2022-12-07T12:21:12;6.60;99.90
32522;DHT22;18963;51.504;5.316;2022-12-07T12:26:03;6.90;99.90
32522;DHT22;18963;51.504;5.316;2022-12-07T12:28:40;6.90;99.90
32522;DHT22;18963;51.504;5.316;2022-12-07T12:33:32;7.10;99.90
32522;DHT22;18963;51.504;5.316;2022-12-07T12:38:49;7.20;99.90
32522;DHT22;18963;51.504;5.316;2022-12-07T12:43:59;7.30;99.90
32522;DHT22;18963;51.504;5.316;2022-12-07T12:51:44;7.10;99.90
32522;DHT22;18963;51.504;5.316;2022-12-07T12:54:57;7.00;99.90
32522;DHT22;18963;51.504;5.316;2022-12-07T12:57:05;7.00;99.90
32522;DHT22;18963;51.504;5.316;2022-12-07T12:59:34;7.00;99.90
32522;DHT22;18963;51.504;5.316;2022-12-07T13:04:49;7.00;99.90
32522;DHT22;18963;51.504;5.316;2022-12-07T13:09:59;7.00;99.90
32522;DHT22;18963;51.504;5.316;2022-12-07T13:12:25;6.90;99.90
32522;DHT22;18963;51.504;5.316;2022-12-07T13:14:52;6.80;99.90
32522;DHT22;18963;51.504;5.316;2022-12-07T13:20:05;6.70;99.90
32522;DHT22;18963;51.504;5.316;2022-12-07T13:25:12;6.50;99.90
32522;DHT22;18963;51.504;5.316;2022-12-07T13:27:47;6.40;99.90
32522;DHT22;18963;51.504;5.316;2022-12-07T13:30:15;6.40;99.90
32522;DHT22;18963;51.504;5.316;2022-12-07T13:32:42;6.30;99.90
32522;DHT22;18963;51.504;5.316;2022-12-07T13:35:27;6.30;99.90
32522;DHT22;18963;51.504;5.316;2022-12-07T13:37:53;6.30;99.90
32522;DHT22;18963;51.504;5.316;2022-12-07T13:40:19;6.40;99.90
32522;DHT22;18963;51.504;5.316;2022-12-07T13:42:45;6.50;99.90
32522;DHT22;18963;51.504;5.316;2022-12-07T13:45:44;6.50;99.90
32522;DHT22;18963;51.504;5.316;2022-12-07T13:48:16;6.60;99.90
32522;DHT22;18963;51.504;5.316;2022-12-07T13:50:47;6.60;99.90
32522;DHT22;18963;51.504;5.316;2022-12-07T13:53:17;6.60;99.90
32522;DHT22;18963;51.504;5.316;2022-12-07T13:55:45;6.70;99.90
32522;DHT22;18963;51.504;5.316;2022-12-07T13:58:11;6.70;99.90
32522;DHT22;18963;51.504;5.316;2022-12-07T14:00:37;6.70;99.90
32522;DHT22;18963;51.504;5.316;2022-12-07T14:03:04;6.80;99.90
32522;DHT22;18963;51.504;5.316;2022-12-07T14:05:46;6.80;99.90
32522;DHT22;18963;51.504;5.316;2022-12-07T14:13:20;6.80;99.90
32522;DHT22;18963;51.504;5.316;2022-12-07T14:15:49;6.80;99.90
32522;DHT22;18963;51.504;5.316;2022-12-07T14:18:25;6.80;99.90
32522;DHT22;18963;51.504;5.316;2022-12-07T14:20:52;6.70;99.90
32522;DHT22;18963;51.504;5.316;2022-12-07T14:23:27;6.70;99.90
32522;DHT22;18963;51.504;5.316;2022-12-07T14:25:53;6.60;99.90
32522;DHT22;18963;51.504;5.316;2022-12-07T14:28:26;6.50;99.90
32522;DHT22;18963;51.504;5.316;2022-12-07T14:30:52;6.40;99.90
32522;DHT22;18963;51.504;5.316;2022-12-07T14:33:17;6.30;99.90
32522;DHT22;18963;51.504;5.316;2022-12-07T14:35:43;6.20;99.90
32522;DHT22;18963;51.504;5.316;2022-12-07T14:38:09;6.10;99.90
32522;DHT22;18963;51.504;5.316;2022-12-07T14:40:34;6.00;99.90
32522;DHT22;18963;51.504;5.316;2022-12-07T14:43:01;5.80;99.90
32522;DHT22;18963;51.504;5.316;2022-12-07T14:45:27;5.70;99.90
32522;DHT22;18963;51.504;5.316;2022-12-07T14:47:54;5.60;99.90
32522;DHT22;18963;51.504;5.316;2022-12-07T14:50:21;5.50;99.90
32522;DHT22;18963;51.504;5.316;2022-12-07T14:52:52;5.50;99.90
32522;DHT22;18963;51.504;5.316;2022-12-07T14:55:23;5.40;99.90
32522;DHT22;18963;51.504;5.316;2022-12-07T14:57:49;5.40;99.90
32522;DHT22;18963;51.504;5.316;2022-12-07T15:00:15;5.30;99.90
32522;DHT22;18963;51.504;5.316;2022-12-07T15:02:42;5.30;99.90
32522;DHT22;18963;51.504;5.316;2022-12-07T15:05:08;5.20;99.90
32522;DHT22;18963;51.504;5.316;2022-12-07T15:07:33;5.20;99.90
32522;DHT22;18963;51.504;5.316;2022-12-07T15:09:59;5.20;99.90
32522;DHT22;18963;51.504;5.316;2022-12-07T15:12:24;5.10;99.90
32522;DHT22;18963;51.504;5.316;2022-12-07T15:14:50;5.10;99.90
32522;DHT22;18963;51.504;5.316;2022-12-07T15:17:16;5.10;99.90
32522;DHT22;18963;51.504;5.316;2022-12-07T15:19:42;5.00;99.90
32522;DHT22;18963;51.504;5.316;2022-12-07T15:22:08;5.00;99.90
32522;DHT22;18963;51.504;5.316;2022-12-07T15:24:36;4.90;99.90
32522;DHT22;18963;51.504;5.316;2022-12-07T15:27:01;4.90;99.90
32522;DHT22;18963;51.504;5.316;2022-12-07T15:29:27;4.90;99.90
32522;DHT22;18963;51.504;5.316;2022-12-07T15:31:52;4.80;99.90
32522;DHT22;18963;51.504;5.316;2022-12-07T15:34:18;4.80;99.90
32522;DHT22;18963;51.504;5.316;2022-12-07T15:36:43;4.70;99.90
32522;DHT22;18963;51.504;5.316;2022-12-07T15:39:09;4.60;99.90
32522;DHT22;18963;51.504;5.316;2022-12-07T15:41:35;4.60;99.90
32522;DHT22;18963;51.504;5.316;2022-12-07T15:44:00;4.60;99.90
32522;DHT22;18963;51.504;5.316;2022-12-07T15:46:44;4.60;99.90
32522;DHT22;18963;51.504;5.316;2022-12-07T15:49:11;4.60;99.90
32522;DHT22;18963;51.504;5.316;2022-12-07T15:51:37;4.50;99.90
32522;DHT22;18963;51.504;5.316;2022-12-07T15:54:03;4.50;99.90
32522;DHT22;18963;51.504;5.316;2022-12-07T15:56:28;4.50;99.90
32522;DHT22;18963;51.504;5.316;2022-12-07T15:58:55;4.50;99.90
32522;DHT22;18963;51.504;5.316;2022-12-07T16:01:21;4.50;99.90
32522;DHT22;18963;51.504;5.316;2022-12-07T16:03:46;4.50;99.90
32522;DHT22;18963;51.504;5.316;2022-12-07T16:06:12;4.50;99.90
32522;DHT22;18963;51.504;5.316;2022-12-07T16:08:43;4.40;99.90
32522;DHT22;18963;51.504;5.316;2022-12-07T16:11:09;4.50;99.90
32522;DHT22;18963;51.504;5.316;2022-12-07T16:13:35;4.50;99.90
32522;DHT22;18963;51.504;5.316;2022-12-07T16:16:04;4.50;99.90
32522;DHT22;18963;51.504;5.316;2022-12-07T16:18:30;4.40;99.90
32522;DHT22;18963;51.504;5.316;2022-12-07T16:20:55;4.40;99.90
32522;DHT22;18963;51.504;5.316;2022-12-07T16:23:21;4.40;99.90
32522;DHT22;18963;51.504;5.316;2022-12-07T16:25:46;4.40;99.90
32522;DHT22;18963;51.504;5.316;2022-12-07T16:28:12;4.40;99.90
32522;DHT22;18963;51.504;5.316;2022-12-07T16:30:37;4.40;99.90
32522;DHT22;18963;51.504;5.316;2022-12-07T16:33:03;4.30;99.90
32522;DHT22;18963;51.504;5.316;2022-12-07T16:35:28;4.40;99.90
32522;DHT22;18963;51.504;5.316;2022-12-07T16:37:54;4.40;99.90
32522;DHT22;18963;51.504;5.316;2022-12-07T16:40:19;4.40;99.90
32522;DHT22;18963;51.504;5.316;2022-12-07T16:42:45;4.30;99.90
32522;DHT22;18963;51.504;5.316;2022-12-07T16:45:10;4.30;99.90
32522;DHT22;18963;51.504;5.316;2022-12-07T16:47:39;4.30;99.90
32522;DHT22;18963;51.504;5.316;2022-12-07T16:50:05;4.40;99.90
32522;DHT22;18963;51.504;5.316;2022-12-07T16:52:32;4.30;99.90
32522;DHT22;18963;51.504;5.316;2022-12-07T16:54:58;4.30;99.90
32522;DHT22;18963;51.504;5.316;2022-12-07T16:57:24;4.30;99.90
32522;DHT22;18963;51.504;5.316;2022-12-07T16:59:49;4.30;99.90
32522;DHT22;18963;51.504;5.316;2022-12-07T17:02:15;4.40;99.90
32522;DHT22;18963;51.504;5.316;2022-12-07T17:04:40;4.40;99.90
32522;DHT22;18963;51.504;5.316;2022-12-07T17:07:07;4.40;99.90
32522;DHT22;18963;51.504;5.316;2022-12-07T17:09:33;4.40;99.90
32522;DHT22;18963;51.504;5.316;2022-12-07T17:12:00;4.40;99.90
32522;DHT22;18963;51.504;5.316;2022-12-07T17:14:26;4.40;99.90
32522;DHT22;18963;51.504;5.316;2022-12-07T17:17:10;4.40;99.90
32522;DHT22;18963;51.504;5.316;2022-12-07T17:19:35;4.40;99.90
32522;DHT22;18963;51.504;5.316;2022-12-07T17:22:01;4.40;99.90